sensor_id;sensor_type;location;lat;lon;timestamp;P1;durP1;ratioP1;P2;durP2;ratioP2
54037;SDS011;39954;48.844;9.726;2022-12-24T00:00:55;9.95;;;1.55;;
54037;SDS011;39954;48.844;9.726;2022-12-24T00:02:00;7.25;;;1.50;;
54037;SDS011;39954;48.844;9.726;2022-12-24T00:03:03;6.72;;;1.50;;
54037;SDS011;39954;48.844;9.726;2022-12-24T00:04:10;7.20;;;1.30;;
54037;SDS011;39954;48.844;9.726;2022-12-24T00:05:12;8.43;;;1.42;;
54037;SDS011;39954;48.844;9.726;2022-12-24T00:06:17;7.45;;;1.60;;
54037;SDS011;39954;48.844;9.726;2022-12-24T00:07:21;8.63;;;1.60;;
54037;SDS011;39954;48.844;9.726;2022-12-24T00:08:25;2.65;;;1.23;;
54037;SDS011;39954;48.844;9.726;2022-12-24T00:09:27;11.85;;;1.55;;
54037;SDS011;39954;48.844;9.726;2022-12-24T00:10:32;9.73;;;1.48;;
54037;SDS011;39954;48.844;9.726;2022-12-24T00:11:34;13.90;;;2.20;;
54037;SDS011;39954;48.844;9.726;2022-12-24T00:12:39;6.38;;;1.92;;
54037;SDS011;39954;48.844;9.726;2022-12-24T00:13:41;7.68;;;1.42;;
54037;SDS011;39954;48.844;9.726;2022-12-24T00:14:46;13.60;;;2.38;;
54037;SDS011;39954;48.844;9.726;2022-12-24T00:15:48;10.98;;;1.60;;
54037;SDS011;39954;48.844;9.726;2022-12-24T00:16:52;8.57;;;1.60;;
54037;SDS011;39954;48.844;9.726;2022-12-24T00:17:55;5.68;;;1.75;;
54037;SDS011;39954;48.844;9.726;2022-12-24T00:19:00;13.40;;;2.33;;
54037;SDS011;39954;48.844;9.726;2022-12-24T00:20:05;4.38;;;1.33;;
54037;SDS011;39954;48.844;9.726;2022-12-24T00:21:11;5.47;;;1.52;;
54037;SDS011;39954;48.844;9.726;2022-12-24T00:22:14;7.57;;;1.50;;
54037;SDS011;39954;48.844;9.726;2022-12-24T00:23:18;7.68;;;1.73;;
54037;SDS011;39954;48.844;9.726;2022-12-24T00:24:21;7.32;;;1.60;;
54037;SDS011;39954;48.844;9.726;2022-12-24T00:25:26;7.15;;;1.60;;
54037;SDS011;39954;48.844;9.726;2022-12-24T00:26:28;7.35;;;1.67;;
54037;SDS011;39954;48.844;9.726;2022-12-24T00:27:33;11.40;;;1.75;;
54037;SDS011;39954;48.844;9.726;2022-12-24T00:28:35;6.88;;;2.00;;
54037;SDS011;39954;48.844;9.726;2022-12-24T00:29:40;4.60;;;1.50;;
54037;SDS011;39954;48.844;9.726;2022-12-24T00:30:42;11.07;;;1.83;;
54037;SDS011;39954;48.844;9.726;2022-12-24T00:31:46;7.13;;;1.60;;
54037;SDS011;39954;48.844;9.726;2022-12-24T00:32:48;6.72;;;1.30;;
54037;SDS011;39954;48.844;9.726;2022-12-24T00:33:53;7.93;;;1.63;;
54037;SDS011;39954;48.844;9.726;2022-12-24T00:34:55;6.53;;;1.30;;
54037;SDS011;39954;48.844;9.726;2022-12-24T00:36:02;11.95;;;1.60;;
54037;SDS011;39954;48.844;9.726;2022-12-24T00:37:06;6.35;;;1.30;;
54037;SDS011;39954;48.844;9.726;2022-12-24T00:38:10;5.72;;;1.25;;
54037;SDS011;39954;48.844;9.726;2022-12-24T00:39:12;5.05;;;1.50;;
54037;SDS011;39954;48.844;9.726;2022-12-24T00:40:17;4.80;;;1.55;;
54037;SDS011;39954;48.844;9.726;2022-12-24T00:41:19;7.88;;;1.42;;
54037;SDS011;39954;48.844;9.726;2022-12-24T00:42:29;9.65;;;1.13;;
54037;SDS011;39954;48.844;9.726;2022-12-24T00:43:31;5.90;;;1.50;;
54037;SDS011;39954;48.844;9.726;2022-12-24T00:44:37;9.55;;;1.45;;
54037;SDS011;39954;48.844;9.726;2022-12-24T00:45:39;6.90;;;1.33;;
54037;SDS011;39954;48.844;9.726;2022-12-24T00:46:43;9.95;;;1.70;;
54037;SDS011;39954;48.844;9.726;2022-12-24T00:47:45;10.20;;;1.80;;
54037;SDS011;39954;48.844;9.726;2022-12-24T00:48:50;7.53;;;1.23;;
54037;SDS011;39954;48.844;9.726;2022-12-24T00:49:53;9.50;;;1.60;;
54037;SDS011;39954;48.844;9.726;2022-12-24T00:50:57;8.13;;;1.90;;
54037;SDS011;39954;48.844;9.726;2022-12-24T00:52:02;11.35;;;1.67;;
54037;SDS011;39954;48.844;9.726;2022-12-24T00:53:07;6.47;;;1.58;;
54037;SDS011;39954;48.844;9.726;2022-12-24T00:54:09;12.27;;;1.77;;
54037;SDS011;39954;48.844;9.726;2022-12-24T00:55:14;11.05;;;1.55;;
54037;SDS011;39954;48.844;9.726;2022-12-24T00:56:16;6.32;;;1.70;;
54037;SDS011;39954;48.844;9.726;2022-12-24T00:57:21;8.95;;;1.50;;
54037;SDS011;39954;48.844;9.726;2022-12-24T00:58:23;6.82;;;2.13;;
54037;SDS011;39954;48.844;9.726;2022-12-24T00:59:28;8.18;;;1.33;;
54037;SDS011;39954;48.844;9.726;2022-12-24T01:00:32;5.60;;;1.80;;
54037;SDS011;39954;48.844;9.726;2022-12-24T01:01:34;13.52;;;2.15;;
54037;SDS011;39954;48.844;9.726;2022-12-24T01:02:39;8.90;;;1.60;;
54037;SDS011;39954;48.844;9.726;2022-12-24T01:03:41;9.15;;;1.88;;
54037;SDS011;39954;48.844;9.726;2022-12-24T01:04:46;9.48;;;1.73;;
54037;SDS011;39954;48.844;9.726;2022-12-24T01:06:04;6.50;;;1.55;;
54037;SDS011;39954;48.844;9.726;2022-12-24T01:07:11;10.70;;;1.95;;
54037;SDS011;39954;48.844;9.726;2022-12-24T01:08:14;5.53;;;1.40;;
54037;SDS011;39954;48.844;9.726;2022-12-24T01:09:18;10.15;;;1.67;;
54037;SDS011;39954;48.844;9.726;2022-12-24T01:10:20;7.70;;;1.58;;
54037;SDS011;39954;48.844;9.726;2022-12-24T01:11:25;10.63;;;2.03;;
54037;SDS011;39954;48.844;9.726;2022-12-24T01:12:27;12.88;;;1.90;;
54037;SDS011;39954;48.844;9.726;2022-12-24T01:13:32;12.13;;;1.90;;
54037;SDS011;39954;48.844;9.726;2022-12-24T01:14:35;6.30;;;1.55;;
54037;SDS011;39954;48.844;9.726;2022-12-24T01:15:40;7.97;;;1.70;;
54037;SDS011;39954;48.844;9.726;2022-12-24T01:16:42;6.35;;;1.20;;
54037;SDS011;39954;48.844;9.726;2022-12-24T01:17:46;7.88;;;1.67;;
54037;SDS011;39954;48.844;9.726;2022-12-24T01:18:48;15.77;;;2.00;;
54037;SDS011;39954;48.844;9.726;2022-12-24T01:19:53;5.72;;;1.15;;
54037;SDS011;39954;48.844;9.726;2022-12-24T01:20:56;11.90;;;1.77;;
54037;SDS011;39954;48.844;9.726;2022-12-24T01:22:01;10.13;;;1.92;;
54037;SDS011;39954;48.844;9.726;2022-12-24T01:23:06;6.47;;;1.88;;
54037;SDS011;39954;48.844;9.726;2022-12-24T01:24:12;5.78;;;1.15;;
54037;SDS011;39954;48.844;9.726;2022-12-24T01:25:15;6.70;;;1.27;;
54037;SDS011;39954;48.844;9.726;2022-12-24T01:26:20;13.55;;;2.25;;
54037;SDS011;39954;48.844;9.726;2022-12-24T01:27:22;10.85;;;2.00;;
54037;SDS011;39954;48.844;9.726;2022-12-24T01:28:26;9.38;;;1.70;;
54037;SDS011;39954;48.844;9.726;2022-12-24T01:29:29;9.00;;;1.92;;
54037;SDS011;39954;48.844;9.726;2022-12-24T01:30:33;6.60;;;1.52;;
54037;SDS011;39954;48.844;9.726;2022-12-24T01:31:35;11.27;;;1.85;;
54037;SDS011;39954;48.844;9.726;2022-12-24T01:32:40;5.82;;;1.80;;
54037;SDS011;39954;48.844;9.726;2022-12-24T01:33:42;8.95;;;1.55;;
54037;SDS011;39954;48.844;9.726;2022-12-24T01:34:47;10.77;;;2.28;;
54037;SDS011;39954;48.844;9.726;2022-12-24T01:35:49;6.47;;;1.63;;
54037;SDS011;39954;48.844;9.726;2022-12-24T01:36:54;10.23;;;1.80;;
54037;SDS011;39954;48.844;9.726;2022-12-24T01:37:56;9.77;;;1.98;;
54037;SDS011;39954;48.844;9.726;2022-12-24T01:39:03;11.52;;;1.90;;
54037;SDS011;39954;48.844;9.726;2022-12-24T01:40:07;12.50;;;2.05;;
54037;SDS011;39954;48.844;9.726;2022-12-24T01:41:26;9.55;;;1.60;;
54037;SDS011;39954;48.844;9.726;2022-12-24T01:42:44;12.00;;;2.47;;
54037;SDS011;39954;48.844;9.726;2022-12-24T01:44:16;10.88;;;2.17;;
54037;SDS011;39954;48.844;9.726;2022-12-24T01:45:39;11.02;;;2.45;;
54037;SDS011;39954;48.844;9.726;2022-12-24T01:46:43;9.07;;;1.52;;
54037;SDS011;39954;48.844;9.726;2022-12-24T01:47:49;10.13;;;1.63;;
54037;SDS011;39954;48.844;9.726;2022-12-24T01:48:51;8.23;;;2.17;;
54037;SDS011;39954;48.844;9.726;2022-12-24T01:49:59;13.25;;;1.85;;
54037;SDS011;39954;48.844;9.726;2022-12-24T01:51:05;8.77;;;1.60;;
54037;SDS011;39954;48.844;9.726;2022-12-24T01:52:19;14.23;;;2.20;;
54037;SDS011;39954;48.844;9.726;2022-12-24T01:53:23;14.60;;;2.10;;
54037;SDS011;39954;48.844;9.726;2022-12-24T01:54:32;13.52;;;2.33;;
54037;SDS011;39954;48.844;9.726;2022-12-24T01:55:39;8.18;;;2.00;;
54037;SDS011;39954;48.844;9.726;2022-12-24T01:56:45;12.25;;;2.33;;
54037;SDS011;39954;48.844;9.726;2022-12-24T01:57:52;11.90;;;2.10;;
54037;SDS011;39954;48.844;9.726;2022-12-24T01:59:01;8.45;;;2.20;;
54037;SDS011;39954;48.844;9.726;2022-12-24T02:00:08;11.38;;;2.00;;
54037;SDS011;39954;48.844;9.726;2022-12-24T02:01:15;11.43;;;2.42;;
54037;SDS011;39954;48.844;9.726;2022-12-24T02:02:17;11.20;;;1.88;;
54037;SDS011;39954;48.844;9.726;2022-12-24T02:03:23;19.60;;;2.90;;
54037;SDS011;39954;48.844;9.726;2022-12-24T02:04:27;10.75;;;2.67;;
54037;SDS011;39954;48.844;9.726;2022-12-24T02:05:38;13.60;;;2.75;;
54037;SDS011;39954;48.844;9.726;2022-12-24T02:06:46;12.45;;;2.55;;
54037;SDS011;39954;48.844;9.726;2022-12-24T02:07:51;12.27;;;2.63;;
54037;SDS011;39954;48.844;9.726;2022-12-24T02:08:53;20.50;;;2.63;;
54037;SDS011;39954;48.844;9.726;2022-12-24T02:10:02;17.90;;;2.63;;
54037;SDS011;39954;48.844;9.726;2022-12-24T02:11:09;18.48;;;2.63;;
54037;SDS011;39954;48.844;9.726;2022-12-24T02:12:15;19.27;;;3.20;;
54037;SDS011;39954;48.844;9.726;2022-12-24T02:13:17;20.95;;;3.78;;
54037;SDS011;39954;48.844;9.726;2022-12-24T02:14:24;16.92;;;3.28;;
54037;SDS011;39954;48.844;9.726;2022-12-24T02:15:28;18.30;;;2.30;;
54037;SDS011;39954;48.844;9.726;2022-12-24T02:16:43;16.88;;;2.63;;
54037;SDS011;39954;48.844;9.726;2022-12-24T02:17:55;16.58;;;2.53;;
54037;SDS011;39954;48.844;9.726;2022-12-24T02:19:10;12.85;;;2.22;;
54037;SDS011;39954;48.844;9.726;2022-12-24T02:20:34;14.15;;;2.47;;
54037;SDS011;39954;48.844;9.726;2022-12-24T02:22:08;19.98;;;2.55;;
54037;SDS011;39954;48.844;9.726;2022-12-24T02:23:20;22.08;;;3.38;;
54037;SDS011;39954;48.844;9.726;2022-12-24T02:26:26;23.17;;;3.72;;
54037;SDS011;39954;48.844;9.726;2022-12-24T02:27:46;11.40;;;2.63;;
54037;SDS011;39954;48.844;9.726;2022-12-24T02:29:07;24.77;;;3.33;;
54037;SDS011;39954;48.844;9.726;2022-12-24T02:30:32;17.63;;;3.17;;
54037;SDS011;39954;48.844;9.726;2022-12-24T02:31:40;19.25;;;3.03;;
54037;SDS011;39954;48.844;9.726;2022-12-24T02:32:52;11.38;;;3.17;;
54037;SDS011;39954;48.844;9.726;2022-12-24T02:34:15;21.35;;;3.55;;
54037;SDS011;39954;48.844;9.726;2022-12-24T02:35:28;28.98;;;3.72;;
54037;SDS011;39954;48.844;9.726;2022-12-24T02:36:39;17.30;;;2.67;;
54037;SDS011;39954;48.844;9.726;2022-12-24T02:37:44;24.35;;;3.90;;
54037;SDS011;39954;48.844;9.726;2022-12-24T02:38:54;20.33;;;3.38;;
54037;SDS011;39954;48.844;9.726;2022-12-24T02:40:03;22.52;;;3.72;;
54037;SDS011;39954;48.844;9.726;2022-12-24T02:41:18;20.67;;;2.75;;
54037;SDS011;39954;48.844;9.726;2022-12-24T02:42:26;21.80;;;4.05;;
54037;SDS011;39954;48.844;9.726;2022-12-24T02:43:38;20.00;;;2.95;;
54037;SDS011;39954;48.844;9.726;2022-12-24T02:44:46;24.40;;;3.78;;
54037;SDS011;39954;48.844;9.726;2022-12-24T02:45:58;27.92;;;4.13;;
54037;SDS011;39954;48.844;9.726;2022-12-24T02:47:04;24.25;;;3.13;;
54037;SDS011;39954;48.844;9.726;2022-12-24T02:48:11;24.30;;;4.05;;
54037;SDS011;39954;48.844;9.726;2022-12-24T02:49:15;22.58;;;3.47;;
54037;SDS011;39954;48.844;9.726;2022-12-24T02:50:20;20.20;;;3.55;;
54037;SDS011;39954;48.844;9.726;2022-12-24T02:51:24;20.88;;;3.55;;
54037;SDS011;39954;48.844;9.726;2022-12-24T02:52:29;15.30;;;3.55;;
54037;SDS011;39954;48.844;9.726;2022-12-24T02:53:34;25.17;;;4.03;;
54037;SDS011;39954;48.844;9.726;2022-12-24T02:54:43;27.48;;;3.83;;
54037;SDS011;39954;48.844;9.726;2022-12-24T02:55:46;20.15;;;3.33;;
54037;SDS011;39954;48.844;9.726;2022-12-24T02:57:05;25.65;;;4.57;;
54037;SDS011;39954;48.844;9.726;2022-12-24T02:59:34;31.70;;;5.40;;
54037;SDS011;39954;48.844;9.726;2022-12-24T03:01:05;26.83;;;4.05;;
54037;SDS011;39954;48.844;9.726;2022-12-24T03:02:21;29.08;;;5.45;;
54037;SDS011;39954;48.844;9.726;2022-12-24T03:03:35;26.60;;;4.32;;
54037;SDS011;39954;48.844;9.726;2022-12-24T03:04:47;29.10;;;3.92;;
54037;SDS011;39954;48.844;9.726;2022-12-24T03:05:59;35.85;;;5.20;;
54037;SDS011;39954;48.844;9.726;2022-12-24T03:07:14;23.33;;;3.95;;
54037;SDS011;39954;48.844;9.726;2022-12-24T03:08:23;22.45;;;4.43;;
54037;SDS011;39954;48.844;9.726;2022-12-24T03:09:35;34.53;;;5.32;;
54037;SDS011;39954;48.844;9.726;2022-12-24T03:10:50;18.98;;;4.03;;
54037;SDS011;39954;48.844;9.726;2022-12-24T03:12:01;28.25;;;4.63;;
54037;SDS011;39954;48.844;9.726;2022-12-24T03:13:09;24.20;;;5.20;;
54037;SDS011;39954;48.844;9.726;2022-12-24T03:14:17;36.53;;;4.60;;
54037;SDS011;39954;48.844;9.726;2022-12-24T03:15:21;28.48;;;5.22;;
54037;SDS011;39954;48.844;9.726;2022-12-24T03:16:31;26.95;;;6.18;;
54037;SDS011;39954;48.844;9.726;2022-12-24T03:17:34;29.88;;;4.78;;
54037;SDS011;39954;48.844;9.726;2022-12-24T03:18:41;29.48;;;3.95;;
54037;SDS011;39954;48.844;9.726;2022-12-24T03:19:47;28.55;;;4.03;;
54037;SDS011;39954;48.844;9.726;2022-12-24T03:20:55;28.67;;;5.43;;
54037;SDS011;39954;48.844;9.726;2022-12-24T03:22:03;27.90;;;4.90;;
54037;SDS011;39954;48.844;9.726;2022-12-24T03:23:12;26.92;;;7.68;;
54037;SDS011;39954;48.844;9.726;2022-12-24T03:24:15;27.42;;;4.93;;
54037;SDS011;39954;48.844;9.726;2022-12-24T03:25:20;22.50;;;4.28;;
54037;SDS011;39954;48.844;9.726;2022-12-24T03:26:25;21.20;;;5.30;;
54037;SDS011;39954;48.844;9.726;2022-12-24T03:27:32;27.00;;;4.90;;
54037;SDS011;39954;48.844;9.726;2022-12-24T03:28:37;22.50;;;4.22;;
54037;SDS011;39954;48.844;9.726;2022-12-24T03:29:44;28.60;;;6.15;;
54037;SDS011;39954;48.844;9.726;2022-12-24T03:30:47;36.92;;;5.07;;
54037;SDS011;39954;48.844;9.726;2022-12-24T03:31:57;20.42;;;4.72;;
54037;SDS011;39954;48.844;9.726;2022-12-24T03:33:02;26.92;;;4.28;;
54037;SDS011;39954;48.844;9.726;2022-12-24T03:34:06;22.40;;;4.68;;
54037;SDS011;39954;48.844;9.726;2022-12-24T03:35:09;24.63;;;4.43;;
54037;SDS011;39954;48.844;9.726;2022-12-24T03:36:14;26.52;;;4.80;;
54037;SDS011;39954;48.844;9.726;2022-12-24T03:37:17;30.55;;;4.80;;
54037;SDS011;39954;48.844;9.726;2022-12-24T03:38:21;25.90;;;7.00;;
54037;SDS011;39954;48.844;9.726;2022-12-24T03:39:24;28.25;;;4.47;;
54037;SDS011;39954;48.844;9.726;2022-12-24T03:40:28;24.75;;;4.90;;
54037;SDS011;39954;48.844;9.726;2022-12-24T03:41:31;35.85;;;5.22;;
54037;SDS011;39954;48.844;9.726;2022-12-24T03:42:36;29.20;;;5.03;;
54037;SDS011;39954;48.844;9.726;2022-12-24T03:43:41;33.65;;;4.97;;
54037;SDS011;39954;48.844;9.726;2022-12-24T03:44:46;26.65;;;5.63;;
54037;SDS011;39954;48.844;9.726;2022-12-24T03:45:48;29.27;;;5.20;;
54037;SDS011;39954;48.844;9.726;2022-12-24T03:46:55;24.98;;;5.55;;
54037;SDS011;39954;48.844;9.726;2022-12-24T03:47:57;28.85;;;5.03;;
54037;SDS011;39954;48.844;9.726;2022-12-24T03:49:02;25.77;;;5.15;;
54037;SDS011;39954;48.844;9.726;2022-12-24T03:50:05;20.15;;;4.63;;
54037;SDS011;39954;48.844;9.726;2022-12-24T03:51:15;26.15;;;5.32;;
54037;SDS011;39954;48.844;9.726;2022-12-24T03:52:19;29.85;;;5.07;;
54037;SDS011;39954;48.844;9.726;2022-12-24T03:53:23;21.83;;;4.57;;
54037;SDS011;39954;48.844;9.726;2022-12-24T03:54:25;23.90;;;4.55;;
54037;SDS011;39954;48.844;9.726;2022-12-24T03:55:30;28.50;;;4.75;;
54037;SDS011;39954;48.844;9.726;2022-12-24T03:56:32;27.17;;;4.78;;
54037;SDS011;39954;48.844;9.726;2022-12-24T03:57:37;31.08;;;5.32;;
54037;SDS011;39954;48.844;9.726;2022-12-24T03:58:39;19.80;;;4.82;;
54037;SDS011;39954;48.844;9.726;2022-12-24T03:59:43;31.70;;;5.60;;
54037;SDS011;39954;48.844;9.726;2022-12-24T04:00:45;28.08;;;5.80;;
54037;SDS011;39954;48.844;9.726;2022-12-24T04:01:50;35.10;;;5.47;;
54037;SDS011;39954;48.844;9.726;2022-12-24T04:02:55;26.25;;;5.63;;
54037;SDS011;39954;48.844;9.726;2022-12-24T04:04:00;22.88;;;4.80;;
54037;SDS011;39954;48.844;9.726;2022-12-24T04:05:02;32.65;;;4.93;;
54037;SDS011;39954;48.844;9.726;2022-12-24T04:06:08;31.25;;;5.18;;
54037;SDS011;39954;48.844;9.726;2022-12-24T04:07:11;24.77;;;4.18;;
54037;SDS011;39954;48.844;9.726;2022-12-24T04:08:16;26.95;;;5.03;;
54037;SDS011;39954;48.844;9.726;2022-12-24T04:09:18;27.40;;;4.70;;
54037;SDS011;39954;48.844;9.726;2022-12-24T04:10:23;25.88;;;6.70;;
54037;SDS011;39954;48.844;9.726;2022-12-24T04:11:25;30.40;;;4.78;;
54037;SDS011;39954;48.844;9.726;2022-12-24T04:12:29;23.83;;;4.88;;
54037;SDS011;39954;48.844;9.726;2022-12-24T04:13:31;27.90;;;3.75;;
54037;SDS011;39954;48.844;9.726;2022-12-24T04:14:36;24.90;;;4.78;;
54037;SDS011;39954;48.844;9.726;2022-12-24T04:15:38;28.27;;;4.88;;
54037;SDS011;39954;48.844;9.726;2022-12-24T04:16:43;31.77;;;4.75;;
54037;SDS011;39954;48.844;9.726;2022-12-24T04:17:45;27.38;;;4.97;;
54037;SDS011;39954;48.844;9.726;2022-12-24T04:18:52;27.10;;;4.35;;
54037;SDS011;39954;48.844;9.726;2022-12-24T04:19:54;39.72;;;5.85;;
54037;SDS011;39954;48.844;9.726;2022-12-24T04:20:59;29.08;;;5.25;;
54037;SDS011;39954;48.844;9.726;2022-12-24T04:22:02;29.75;;;4.72;;
54037;SDS011;39954;48.844;9.726;2022-12-24T04:23:06;28.60;;;4.60;;
54037;SDS011;39954;48.844;9.726;2022-12-24T04:24:08;26.30;;;4.63;;
54037;SDS011;39954;48.844;9.726;2022-12-24T04:25:13;28.80;;;4.70;;
54037;SDS011;39954;48.844;9.726;2022-12-24T04:26:15;30.33;;;4.70;;
54037;SDS011;39954;48.844;9.726;2022-12-24T04:27:20;23.38;;;4.85;;
54037;SDS011;39954;48.844;9.726;2022-12-24T04:28:30;23.30;;;4.55;;
54037;SDS011;39954;48.844;9.726;2022-12-24T04:29:36;25.05;;;3.97;;
54037;SDS011;39954;48.844;9.726;2022-12-24T04:30:38;16.83;;;3.50;;
54037;SDS011;39954;48.844;9.726;2022-12-24T04:31:42;23.25;;;4.25;;
54037;SDS011;39954;48.844;9.726;2022-12-24T04:32:45;24.38;;;4.28;;
54037;SDS011;39954;48.844;9.726;2022-12-24T04:33:52;22.30;;;4.10;;
54037;SDS011;39954;48.844;9.726;2022-12-24T04:34:54;21.60;;;4.07;;
54037;SDS011;39954;48.844;9.726;2022-12-24T04:35:59;24.90;;;4.20;;
54037;SDS011;39954;48.844;9.726;2022-12-24T04:37:02;22.55;;;3.70;;
54037;SDS011;39954;48.844;9.726;2022-12-24T04:38:07;25.20;;;4.28;;
54037;SDS011;39954;48.844;9.726;2022-12-24T04:39:12;24.02;;;4.45;;
54037;SDS011;39954;48.844;9.726;2022-12-24T04:40:14;22.23;;;4.53;;
54037;SDS011;39954;48.844;9.726;2022-12-24T04:41:20;20.73;;;3.90;;
54037;SDS011;39954;48.844;9.726;2022-12-24T04:42:25;20.38;;;4.53;;
54037;SDS011;39954;48.844;9.726;2022-12-24T04:43:30;18.90;;;3.50;;
54037;SDS011;39954;48.844;9.726;2022-12-24T04:44:32;18.40;;;3.92;;
54037;SDS011;39954;48.844;9.726;2022-12-24T04:45:37;23.23;;;4.10;;
54037;SDS011;39954;48.844;9.726;2022-12-24T04:46:39;27.60;;;4.00;;
54037;SDS011;39954;48.844;9.726;2022-12-24T04:47:44;20.65;;;3.75;;
54037;SDS011;39954;48.844;9.726;2022-12-24T04:48:46;29.05;;;8.65;;
54037;SDS011;39954;48.844;9.726;2022-12-24T04:49:55;20.70;;;4.40;;
54037;SDS011;39954;48.844;9.726;2022-12-24T04:50:59;22.30;;;3.85;;
54037;SDS011;39954;48.844;9.726;2022-12-24T04:52:04;27.58;;;3.65;;
54037;SDS011;39954;48.844;9.726;2022-12-24T04:53:06;19.50;;;4.22;;
54037;SDS011;39954;48.844;9.726;2022-12-24T04:54:11;19.92;;;4.43;;
54037;SDS011;39954;48.844;9.726;2022-12-24T04:55:13;19.73;;;4.55;;
54037;SDS011;39954;48.844;9.726;2022-12-24T04:56:19;26.40;;;3.70;;
54037;SDS011;39954;48.844;9.726;2022-12-24T04:57:22;26.08;;;4.95;;
54037;SDS011;39954;48.844;9.726;2022-12-24T04:58:27;17.50;;;3.80;;
54037;SDS011;39954;48.844;9.726;2022-12-24T04:59:29;24.58;;;4.22;;
54037;SDS011;39954;48.844;9.726;2022-12-24T05:00:33;28.42;;;6.22;;
54037;SDS011;39954;48.844;9.726;2022-12-24T05:01:35;20.75;;;4.85;;
54037;SDS011;39954;48.844;9.726;2022-12-24T05:02:40;32.10;;;5.20;;
54037;SDS011;39954;48.844;9.726;2022-12-24T05:03:43;24.45;;;5.80;;
54037;SDS011;39954;48.844;9.726;2022-12-24T05:04:47;21.08;;;4.90;;
54037;SDS011;39954;48.844;9.726;2022-12-24T05:05:52;27.83;;;5.45;;
54037;SDS011;39954;48.844;9.726;2022-12-24T05:07:01;30.20;;;5.97;;
54037;SDS011;39954;48.844;9.726;2022-12-24T05:08:06;31.48;;;7.22;;
54037;SDS011;39954;48.844;9.726;2022-12-24T05:09:08;33.45;;;7.60;;
54037;SDS011;39954;48.844;9.726;2022-12-24T05:10:13;33.45;;;8.05;;
54037;SDS011;39954;48.844;9.726;2022-12-24T05:11:16;31.05;;;7.53;;
54037;SDS011;39954;48.844;9.726;2022-12-24T05:12:20;35.70;;;9.32;;
54037;SDS011;39954;48.844;9.726;2022-12-24T05:13:22;33.08;;;8.57;;
54037;SDS011;39954;48.844;9.726;2022-12-24T05:14:38;38.03;;;8.00;;
54037;SDS011;39954;48.844;9.726;2022-12-24T05:15:43;47.83;;;10.32;;
54037;SDS011;39954;48.844;9.726;2022-12-24T05:16:45;39.03;;;9.52;;
54037;SDS011;39954;48.844;9.726;2022-12-24T05:17:50;27.17;;;5.78;;
54037;SDS011;39954;48.844;9.726;2022-12-24T05:18:54;38.10;;;9.93;;
54037;SDS011;39954;48.844;9.726;2022-12-24T05:19:58;38.80;;;10.00;;
54037;SDS011;39954;48.844;9.726;2022-12-24T05:21:10;38.47;;;9.05;;
54037;SDS011;39954;48.844;9.726;2022-12-24T05:22:17;62.00;;;15.85;;
54037;SDS011;39954;48.844;9.726;2022-12-24T05:23:35;37.58;;;9.82;;
54037;SDS011;39954;48.844;9.726;2022-12-24T05:24:53;53.90;;;13.88;;
54037;SDS011;39954;48.844;9.726;2022-12-24T05:26:12;30.65;;;8.60;;
54037;SDS011;39954;48.844;9.726;2022-12-24T05:27:28;35.80;;;6.15;;
54037;SDS011;39954;48.844;9.726;2022-12-24T05:28:30;41.15;;;8.43;;
54037;SDS011;39954;48.844;9.726;2022-12-24T05:29:35;35.15;;;7.85;;
54037;SDS011;39954;48.844;9.726;2022-12-24T05:30:37;26.70;;;4.65;;
54037;SDS011;39954;48.844;9.726;2022-12-24T05:31:42;41.33;;;8.98;;
54037;SDS011;39954;48.844;9.726;2022-12-24T05:32:47;28.98;;;8.15;;
54037;SDS011;39954;48.844;9.726;2022-12-24T05:33:50;40.83;;;9.23;;
54037;SDS011;39954;48.844;9.726;2022-12-24T05:34:55;32.95;;;8.23;;
54037;SDS011;39954;48.844;9.726;2022-12-24T05:35:57;39.47;;;8.68;;
54037;SDS011;39954;48.844;9.726;2022-12-24T05:37:04;49.85;;;9.02;;
54037;SDS011;39954;48.844;9.726;2022-12-24T05:38:06;40.95;;;8.27;;
54037;SDS011;39954;48.844;9.726;2022-12-24T05:39:12;41.97;;;7.60;;
54037;SDS011;39954;48.844;9.726;2022-12-24T05:40:18;35.70;;;8.45;;
54037;SDS011;39954;48.844;9.726;2022-12-24T05:41:20;44.10;;;7.82;;
54037;SDS011;39954;48.844;9.726;2022-12-24T05:42:22;37.42;;;7.88;;
54037;SDS011;39954;48.844;9.726;2022-12-24T05:43:27;37.83;;;8.02;;
54037;SDS011;39954;48.844;9.726;2022-12-24T05:44:29;40.83;;;8.52;;
54037;SDS011;39954;48.844;9.726;2022-12-24T05:45:34;33.72;;;7.45;;
54037;SDS011;39954;48.844;9.726;2022-12-24T05:46:36;50.45;;;11.05;;
54037;SDS011;39954;48.844;9.726;2022-12-24T05:47:40;31.88;;;7.60;;
54037;SDS011;39954;48.844;9.726;2022-12-24T05:48:44;45.55;;;9.32;;
54037;SDS011;39954;48.844;9.726;2022-12-24T05:49:49;43.88;;;11.85;;
54037;SDS011;39954;48.844;9.726;2022-12-24T05:50:51;33.72;;;8.55;;
54037;SDS011;39954;48.844;9.726;2022-12-24T05:51:56;38.45;;;8.13;;
54037;SDS011;39954;48.844;9.726;2022-12-24T05:53:00;43.13;;;12.95;;
54037;SDS011;39954;48.844;9.726;2022-12-24T05:54:05;35.35;;;8.52;;
54037;SDS011;39954;48.844;9.726;2022-12-24T05:55:08;35.35;;;7.57;;
54037;SDS011;39954;48.844;9.726;2022-12-24T05:56:14;33.70;;;8.48;;
54037;SDS011;39954;48.844;9.726;2022-12-24T05:57:17;37.42;;;9.13;;
54037;SDS011;39954;48.844;9.726;2022-12-24T05:58:22;46.83;;;9.40;;
54037;SDS011;39954;48.844;9.726;2022-12-24T05:59:23;39.42;;;9.27;;
54037;SDS011;39954;48.844;9.726;2022-12-24T06:00:28;29.17;;;9.00;;
54037;SDS011;39954;48.844;9.726;2022-12-24T06:01:30;52.15;;;9.65;;
54037;SDS011;39954;48.844;9.726;2022-12-24T06:02:35;44.20;;;10.27;;
54037;SDS011;39954;48.844;9.726;2022-12-24T06:03:37;38.95;;;9.52;;
54037;SDS011;39954;48.844;9.726;2022-12-24T06:04:42;36.78;;;9.20;;
54037;SDS011;39954;48.844;9.726;2022-12-24T06:05:44;55.17;;;13.60;;
54037;SDS011;39954;48.844;9.726;2022-12-24T06:06:49;38.67;;;8.82;;
54037;SDS011;39954;48.844;9.726;2022-12-24T06:07:51;45.90;;;10.30;;
54037;SDS011;39954;48.844;9.726;2022-12-24T06:08:58;47.53;;;11.02;;
54037;SDS011;39954;48.844;9.726;2022-12-24T06:10:00;38.47;;;9.35;;
54037;SDS011;39954;48.844;9.726;2022-12-24T06:11:05;41.95;;;8.23;;
54037;SDS011;39954;48.844;9.726;2022-12-24T06:12:09;36.15;;;7.47;;
54037;SDS011;39954;48.844;9.726;2022-12-24T06:13:13;49.42;;;9.82;;
54037;SDS011;39954;48.844;9.726;2022-12-24T06:14:15;37.95;;;7.78;;
54037;SDS011;39954;48.844;9.726;2022-12-24T06:15:20;29.83;;;6.65;;
54037;SDS011;39954;48.844;9.726;2022-12-24T06:16:24;33.15;;;7.15;;
54037;SDS011;39954;48.844;9.726;2022-12-24T06:17:30;37.22;;;8.43;;
54037;SDS011;39954;48.844;9.726;2022-12-24T06:18:32;25.90;;;6.88;;
54037;SDS011;39954;48.844;9.726;2022-12-24T06:19:38;33.45;;;6.40;;
54037;SDS011;39954;48.844;9.726;2022-12-24T06:20:40;38.60;;;10.10;;
54037;SDS011;39954;48.844;9.726;2022-12-24T06:21:45;30.65;;;7.88;;
54037;SDS011;39954;48.844;9.726;2022-12-24T06:22:47;31.25;;;7.57;;
54037;SDS011;39954;48.844;9.726;2022-12-24T06:23:51;36.47;;;8.25;;
54037;SDS011;39954;48.844;9.726;2022-12-24T06:24:56;45.33;;;8.30;;
54037;SDS011;39954;48.844;9.726;2022-12-24T06:26:01;37.78;;;7.93;;
54037;SDS011;39954;48.844;9.726;2022-12-24T06:27:04;43.85;;;11.57;;
54037;SDS011;39954;48.844;9.726;2022-12-24T06:28:08;39.45;;;8.35;;
54037;SDS011;39954;48.844;9.726;2022-12-24T06:29:10;29.70;;;6.95;;
54037;SDS011;39954;48.844;9.726;2022-12-24T06:30:15;36.78;;;7.50;;
54037;SDS011;39954;48.844;9.726;2022-12-24T06:31:19;38.50;;;7.68;;
54037;SDS011;39954;48.844;9.726;2022-12-24T06:32:25;31.25;;;7.47;;
54037;SDS011;39954;48.844;9.726;2022-12-24T06:33:27;28.00;;;7.88;;
54037;SDS011;39954;48.844;9.726;2022-12-24T06:34:32;38.90;;;7.07;;